Time;durP1;ratioP1;P1;durP2;ratioP2;P2;SDS_P1;SDS_P2;PMS_P1;PMS_P2;Temp;Humidity;BMP_temperature;BMP_pressure;BME280_temperature;BME280_humidity;BME280_pressure;Samples;Min_cycle;Max_cycle;Signal;HPM_P1;HPM_P2
2022/05/21 00:00:12;;;;;;;;;;;;;;;14.92;65.34;101465.31;5200320;28;20045;-78
2022/05/21 00:02:42;;;;;;;0.40;0.40;;;;;;;14.89;65.99;101468.09;5197562;28;19920;-78
2022/05/21 00:05:15;;;;;;;0.40;0.40;;;;;;;14.78;66.03;101460.53;5181245;28;20037;-78
2022/05/21 00:07:46;;;;;;;0.68;0.68;;;;;;;14.90;65.21;101459.25;5201952;28;20017;-78
2022/05/21 00:10:17;;;;;;;0.65;0.65;;;;;;;14.93;65.52;101462.66;5179243;28;20107;-78
2022/05/21 00:12:48;;;;;;;1.48;0.90;;;;;;;14.84;65.60;101468.25;5182359;28;20121;-78
2022/05/21 00:15:21;;;;;;;1.20;1.15;;;;;;;14.41;67.82;101465.19;5194065;28;20034;-78
2022/05/21 00:17:52;;;;;;;;;;;;;;;14.46;67.15;101468.53;5199776;28;20057;-78
2022/05/21 00:23:14;;;;;;;0.40;0.40;;;;;;;14.59;66.40;101468.13;5210316;28;20033;-78
2022/05/21 00:25:47;;;;;;;0.90;0.70;;;;;;;14.57;66.90;101473.47;5176520;28;20033;-78
2022/05/21 00:28:18;;;;;;;;;;;;;;;14.69;66.36;101461.69;5179778;28;20014;-78
2022/05/21 00:30:48;;;;;;;0.43;0.43;;;;;;;14.41;67.44;101469.59;5197948;28;20559;-78
2022/05/21 00:33:19;;;;;;;1.02;1.02;;;;;;;14.45;67.60;101460.66;5199758;28;20029;-78
2022/05/21 00:35:51;;;;;;;0.90;0.90;;;;;;;14.46;67.16;101470.31;5197329;28;20048;-78
2022/05/21 00:38:25;;;;;;;0.85;0.85;;;;;;;14.47;67.21;101470.25;5196775;28;20500;-78
2022/05/21 00:40:55;;;;;;;10.43;2.15;;;;;;;14.31;68.54;101469.88;5195436;28;20038;-78
2022/05/21 00:43:48;;;;;;;1.75;1.65;;;;;;;14.24;68.61;101462.19;5201133;28;20032;-78
2022/05/21 00:46:23;;;;;;;1.00;1.00;;;;;;;14.15;69.22;101458.03;5186718;28;20518;-78
2022/05/21 00:49:10;;;;;;;0.68;0.68;;;;;;;14.08;69.49;101464.41;5203598;28;20025;-77
2022/05/21 00:51:55;;;;;;;6.60;1.60;;;;;;;13.99;70.20;101468.22;5202403;28;20030;-77
2022/05/21 00:54:37;;;;;;;0.55;0.55;;;;;;;14.19;69.46;101464.09;5178548;28;20041;-77
2022/05/21 00:57:15;;;;;;;0.82;0.82;;;;;;;14.17;68.42;101472.91;5195193;28;20037;-77
2022/05/21 00:59:51;;;;;;;0.50;0.50;;;;;;;14.19;68.88;101462.34;5196829;28;20094;-78
2022/05/21 01:02:28;;;;;;;1.88;1.33;;;;;;;14.23;68.80;101460.47;5205237;28;20021;-78
2022/05/21 01:05:02;;;;;;;1.55;1.45;;;;;;;14.10;69.13;101468.75;5187574;28;20064;-77
2022/05/21 01:07:36;;;;;;;5.28;2.15;;;;;;;14.09;68.52;101467.00;5191746;28;20085;-77
2022/05/21 01:10:08;;;;;;;1.15;1.10;;;;;;;14.30;67.75;101467.28;5201945;28;20057;-77
2022/05/21 01:12:42;;;;;;;0.50;0.50;;;;;;;14.36;67.72;101466.22;5176669;28;20087;-77
2022/05/21 01:15:18;;;;;;;0.68;0.68;;;;;;;14.29;67.66;101473.47;5193335;28;20043;-78
2022/05/21 01:17:48;;;;;;;0.98;0.98;;;;;;;14.03;69.28;101469.84;5196076;28;20034;-77
2022/05/21 01:20:25;;;;;;;1.02;0.98;;;;;;;14.14;68.26;101466.88;5194978;28;20048;-77
2022/05/21 01:22:56;;;;;;;1.95;0.88;;;;;;;13.96;69.34;101470.94;5194840;28;20030;-78
2022/05/21 01:25:31;;;;;;;2.13;1.27;;;;;;;14.20;68.08;101468.47;5193484;28;20389;-77
2022/05/21 01:28:03;;;;;;;0.75;0.75;;;;;;;14.23;68.09;101471.03;5179606;28;20037;-77
2022/05/21 01:30:44;;;;;;;2.50;1.92;;;;;;;14.05;68.60;101470.66;5194973;28;20124;-77
2022/05/21 01:33:23;;;;;;;0.82;0.80;;;;;;;13.93;69.16;101474.53;5196006;28;20633;-77
2022/05/21 01:35:54;;;;;;;0.68;0.68;;;;;;;14.02;68.56;101465.47;5174472;28;20048;-77
2022/05/21 01:38:26;;;;;;;0.60;0.60;;;;;;;13.85;68.73;101465.97;5192591;28;20063;-78
2022/05/21 01:40:58;;;;;;;0.68;0.68;;;;;;;13.80;68.71;101474.00;5176048;28;20054;-77
2022/05/21 01:46:18;;;;;;;2.35;2.15;;;;;;;13.66;68.79;101471.75;5176702;28;20036;-78
2022/05/21 01:48:49;;;;;;;0.82;0.80;;;;;;;13.70;68.89;101464.63;5177087;28;20828;-77
2022/05/21 01:51:20;;;;;;;0.60;0.60;;;;;;;13.64;68.94;101467.44;5195899;28;20037;-77
2022/05/21 01:53:54;;;;;;;0.57;0.57;;;;;;;13.66;68.60;101468.28;5193820;28;20086;-77
2022/05/21 01:56:24;;;;;;;1.20;0.85;;;;;;;13.65;68.17;101464.75;5192982;28;20095;-77
2022/05/21 01:58:56;;;;;;;0.50;0.50;;;;;;;13.58;68.20;101464.97;5156122;28;20029;-78
2022/05/21 02:01:29;;;;;;;0.93;0.93;;;;;;;13.62;67.99;101458.69;5180390;28;20030;-78
2022/05/21 02:03:59;;;;;;;0.68;0.68;;;;;;;13.59;67.95;101464.09;5194824;28;20115;-78
2022/05/21 02:06:30;;;;;;;0.30;0.30;;;;;;;13.61;67.92;101462.25;5177556;28;20029;-78
2022/05/21 02:09:00;;;;;;;1.75;1.48;;;;;;;13.52;68.59;101458.94;5193375;28;20585;-77
2022/05/21 02:11:31;;;;;;;0.30;0.30;;;;;;;13.56;68.54;101453.59;5196707;28;20399;-78
2022/05/21 02:14:05;;;;;;;0.73;0.73;;;;;;;13.54;67.93;101451.03;5189888;28;20044;-77
2022/05/21 02:16:36;;;;;;;8.73;1.88;;;;;;;13.56;67.99;101453.59;5199514;28;20036;-78
2022/05/21 02:19:07;;;;;;;32.60;1.95;;;;;;;13.43;68.87;101448.66;5180027;28;20025;-77
2022/05/21 02:21:40;;;;;;;0.30;0.30;;;;;;;13.73;67.57;101448.72;5177668;28;20617;-77
2022/05/21 02:24:13;;;;;;;0.85;0.85;;;;;;;13.63;68.17;101447.25;5173613;28;20487;-77
2022/05/21 02:26:43;;;;;;;0.73;0.73;;;;;;;13.59;67.96;101453.53;5193557;28;20052;-77
2022/05/21 02:29:13;;;;;;;0.50;0.50;;;;;;;13.59;67.95;101451.75;5193191;28;20723;-77
2022/05/21 02:31:45;;;;;;;25.05;3.03;;;;;;;13.56;68.31;101453.59;5194400;28;20048;-78
2022/05/21 02:34:15;;;;;;;0.68;0.60;;;;;;;13.38;68.76;101445.25;5161423;28;20044;-77
2022/05/21 02:39:35;;;;;;;1.17;0.73;;;;;;;13.48;68.06;101445.91;5210410;28;20040;-77
2022/05/21 02:42:43;;;;;;;1.13;1.02;;;;;;;13.29;68.87;101450.78;5194974;28;20033;-77
2022/05/21 02:44:56;;;;;;;0.65;0.65;;;;;;;13.37;68.76;101443.53;5192628;28;20029;-77
2022/05/21 02:47:31;;;;;;;0.30;0.30;;;;;;;13.32;68.84;101451.56;5187367;28;20037;-77
2022/05/21 02:50:03;;;;;;;0.30;0.30;;;;;;;13.46;68.52;101447.75;5193652;28;20048;-77
2022/05/21 02:52:33;;;;;;;0.40;0.40;;;;;;;13.43;68.44;101451.28;5178127;28;20033;-78
2022/05/21 02:55:08;;;;;;;0.40;0.40;;;;;;;13.29;69.61;101462.19;5178431;28;20055;-77
2022/05/21 02:57:40;;;;;;;0.30;0.30;;;;;;;13.28;69.38;101459.59;5176134;28;20036;-77
2022/05/21 03:00:17;;;;;;;0.60;0.60;;;;;;;13.26;69.82;101458.78;5192737;28;20071;-77
2022/05/21 03:02:48;;;;;;;1.25;1.15;;;;;;;13.32;69.90;101454.19;5175143;28;20113;-77
2022/05/21 03:05:19;;;;;;;0.68;0.68;;;;;;;13.29;69.71;101462.19;5192750;28;20598;-77
2022/05/21 03:07:53;;;;;;;0.30;0.30;;;;;;;13.28;69.59;101464.84;5197500;28;20052;-77
2022/05/21 03:10:28;;;;;;;1.35;0.65;;;;;;;13.37;69.35;101468.13;5211795;28;20415;-77
2022/05/21 03:13:03;;;;;;;0.70;0.70;;;;;;;13.36;69.52;101468.16;5190285;28;20030;-77
2022/05/21 03:15:37;;;;;;;0.68;0.68;;;;;;;13.28;69.67;101470.13;5194223;28;20034;-77
2022/05/21 03:18:10;;;;;;;0.25;0.25;;;;;;;13.26;69.99;101464.06;5177082;28;20596;-78
2022/05/21 03:20:41;;;;;;;0.47;0.45;;;;;;;13.19;70.75;101461.56;5190628;28;20688;-77
2022/05/21 03:23:12;;;;;;;1.35;1.20;;;;;;;13.37;69.07;101470.78;5194037;28;20021;-78
2022/05/21 03:25:42;;;;;;;0.75;0.75;;;;;;;13.34;69.98;101472.63;5171823;28;20033;-77
2022/05/21 03:28:20;;;;;;;0.30;0.30;;;;;;;13.30;69.68;101468.31;5163671;28;20033;-78
2022/05/21 03:30:50;;;;;;;0.22;0.22;;;;;;;13.40;68.98;101468.97;5194755;28;20041;-78
2022/05/21 03:33:21;;;;;;;0.30;0.30;;;;;;;13.49;68.80;101468.72;5175272;28;20033;-78
2022/05/21 03:35:51;;;;;;;0.80;0.80;;;;;;;13.44;69.15;101486.44;5193231;28;20053;-78
2022/05/21 03:38:22;;;;;;;0.28;0.28;;;;;;;13.40;69.11;101479.50;5163186;28;20029;-78
2022/05/21 03:40:53;;;;;;;0.52;0.52;;;;;;;13.41;68.78;101476.84;5192390;28;20045;-78
2022/05/21 03:43:24;;;;;;;2.92;0.73;;;;;;;13.41;69.45;101479.50;5195103;28;20025;-78
2022/05/21 03:45:55;;;;;;;0.30;0.30;;;;;;;13.43;69.23;101482.06;5176575;28;20424;-78
2022/05/21 03:48:26;;;;;;;0.28;0.28;;;;;;;13.45;69.05;101481.13;5161165;28;20064;-78
2022/05/21 03:50:56;;;;;;;1.30;1.13;;;;;;;13.40;69.05;101484.78;5178864;28;20095;-78
2022/05/21 03:53:28;;;;;;;3.63;0.82;;;;;;;13.35;69.89;101477.84;5212768;28;20048;-79
2022/05/21 03:55:59;;;;;;;1.95;1.48;;;;;;;13.44;69.08;101482.03;5191409;28;20221;-78
2022/05/21 03:58:30;;;;;;;0.30;0.30;;;;;;;13.40;69.43;101479.50;5176887;28;20037;-78
2022/05/21 04:01:02;;;;;;;0.28;0.28;;;;;;;13.37;69.85;101475.16;5196808;28;20392;-78
2022/05/21 04:03:34;;;;;;;6.93;2.35;;;;;;;13.39;69.08;101481.28;5181956;28;20604;-78
2022/05/21 04:06:04;;;;;;;15.15;1.02;;;;;;;13.38;68.91;101480.44;5176760;28;20101;-78
2022/05/21 04:08:35;;;;;;;0.47;0.47;;;;;;;13.19;70.00;101493.19;5198403;28;20120;-78
2022/05/21 04:11:06;;;;;;;1.27;1.17;;;;;;;13.35;68.96;101488.38;5171534;28;20048;-78
2022/05/21 04:13:38;;;;;;;0.47;0.47;;;;;;;13.43;69.06;101493.47;5199954;28;20099;-79
2022/05/21 04:16:09;;;;;;;0.75;0.75;;;;;;;13.36;69.12;101490.13;5197290;28;20041;-77
2022/05/21 04:18:40;;;;;;;0.50;0.50;;;;;;;13.41;68.99;101494.41;5214172;28;20034;-77
2022/05/21 04:21:10;;;;;;;0.57;0.57;;;;;;;13.34;69.80;101496.34;5181894;28;20037;-78
2022/05/21 04:23:43;;;;;;;0.20;0.20;;;;;;;13.36;69.04;101495.41;5192058;28;20063;-78
2022/05/21 04:26:13;;;;;;;1.33;1.23;;;;;;;13.44;68.37;101503.13;5193954;28;20034;-78
2022/05/21 04:28:47;;;;;;;0.30;0.30;;;;;;;13.44;68.56;101503.13;5195942;28;20021;-78
2022/05/21 04:31:18;;;;;;;0.47;0.47;;;;;;;13.45;68.08;101504.84;5165348;28;20385;-78
2022/05/21 04:33:48;;;;;;;0.45;0.45;;;;;;;13.33;69.10;101506.00;5165177;28;20088;-78
2022/05/21 04:36:19;;;;;;;0.73;0.73;;;;;;;13.35;69.28;101509.47;5172252;28;20613;-78
2022/05/21 04:38:52;;;;;;;0.30;0.30;;;;;;;13.39;68.41;101510.28;5167962;28;20637;-77
2022/05/21 04:41:23;;;;;;;0.40;0.40;;;;;;;13.53;67.84;101508.16;5179271;28;20036;-78
2022/05/21 04:43:54;;;;;;;0.30;0.30;;;;;;;13.52;68.26;101522.22;5196698;28;20105;-78
2022/05/21 04:46:25;;;;;;;1.42;1.13;;;;;;;13.60;67.58;101523.78;5181687;28;20049;-77
2022/05/21 04:48:56;;;;;;;0.50;0.50;;;;;;;13.59;67.84;101528.22;5193745;28;20029;-78
2022/05/21 04:51:27;;;;;;;0.65;0.65;;;;;;;13.63;67.87;101531.63;5198097;28;20032;-78
2022/05/21 04:53:58;;;;;;;0.30;0.30;;;;;;;13.44;68.65;101536.53;5159979;28;20041;-78
2022/05/21 04:56:29;;;;;;;0.45;0.45;;;;;;;13.58;68.45;101530.91;5203481;28;20038;-77
2022/05/21 04:58:59;;;;;;;0.43;0.43;;;;;;;13.56;68.53;101532.72;5185134;28;20098;-78
2022/05/21 05:01:30;;;;;;;0.22;0.22;;;;;;;13.60;68.07;101529.06;5210047;28;20033;-78
2022/05/21 05:04:00;;;;;;;1.50;0.80;;;;;;;13.59;67.94;101533.50;5183786;28;20053;-78
2022/05/21 05:06:32;;;;;;;0.47;0.30;;;;;;;13.71;67.29;101542.84;5161769;28;20022;-78
2022/05/21 05:09:03;;;;;;;0.40;0.40;;;;;;;13.74;67.70;101547.16;5194523;28;20033;-78
2022/05/21 05:11:34;;;;;;;0.47;0.47;;;;;;;13.51;68.43;101540.72;5180840;28;20029;-78
2022/05/21 05:14:05;;;;;;;1.05;0.93;;;;;;;13.61;68.05;101542.22;5183688;28;20709;-78
2022/05/21 05:16:35;;;;;;;0.50;0.50;;;;;;;13.56;68.25;101553.81;5198861;28;20025;-79
2022/05/21 05:19:06;;;;;;;0.38;0.38;;;;;;;13.51;68.36;101543.38;5163231;28;20037;-78
2022/05/21 05:21:37;;;;;;;0.75;0.75;;;;;;;13.44;68.70;101542.66;5181354;28;20048;-78
2022/05/21 05:24:07;;;;;;;0.20;0.20;;;;;;;13.43;68.97;101548.81;5179113;28;20041;-77
2022/05/21 05:26:38;;;;;;;0.30;0.30;;;;;;;13.51;69.02;101553.91;5176976;28;20018;-78
2022/05/21 05:29:09;;;;;;;0.30;0.30;;;;;;;13.48;69.19;101551.34;5196906;28;20057;-79
2022/05/21 05:31:40;;;;;;;0.55;0.55;;;;;;;13.62;68.22;101548.34;5177953;28;20053;-78
2022/05/21 05:34:10;;;;;;;0.63;0.63;;;;;;;13.54;68.32;101551.22;5193680;28;20809;-79
2022/05/21 05:36:41;;;;;;;0.30;0.30;;;;;;;13.55;68.97;101550.31;5183475;28;20029;-79
2022/05/21 05:39:11;;;;;;;0.45;0.45;;;;;;;13.39;69.91;101552.47;5196896;28;20045;-79
2022/05/21 05:41:42;;;;;;;0.30;0.30;;;;;;;13.40;69.49;101554.19;5182193;28;20029;-79
2022/05/21 05:44:12;;;;;;;0.50;0.50;;;;;;;13.36;69.86;101552.50;5174557;28;20100;-78
2022/05/21 05:46:44;;;;;;;0.40;0.40;;;;;;;13.49;69.35;101551.34;5200555;28;20113;-79
2022/05/21 05:49:14;;;;;;;0.77;0.77;;;;;;;13.37;69.32;101556.88;5188647;28;20459;-79
2022/05/21 05:51:48;;;;;;;1.13;0.73;;;;;;;13.49;69.30;101559.25;5181317;28;20025;-78
2022/05/21 05:54:18;;;;;;;0.30;0.30;;;;;;;13.56;68.87;101562.56;5184346;28;20129;-79
2022/05/21 05:56:49;;;;;;;0.40;0.40;;;;;;;13.50;69.30;101560.97;5174160;28;20112;-78
2022/05/21 06:05:03;;;;;;;17.70;1.90;;;;;;;13.57;68.71;101559.03;5195990;28;20092;-78
2022/05/21 06:07:39;;;;;;;0.57;0.57;;;;;;;13.53;69.58;101560.88;5185920;28;20033;-81
2022/05/21 06:10:16;;;;;;;0.30;0.30;;;;;;;13.54;69.21;101562.59;5182716;28;20666;-78
2022/05/21 06:12:48;;;;;;;1.00;0.73;;;;;;;13.67;68.73;101562.31;5183518;28;20037;-78
2022/05/21 06:15:19;;;;;;;1.08;0.60;;;;;;;13.77;68.14;101562.91;5176126;28;20491;-77
2022/05/21 06:17:51;;;;;;;0.32;0.32;;;;;;;13.68;69.14;101569.28;5189782;28;20033;-76
2022/05/21 06:20:25;;;;;;;0.40;0.40;;;;;;;13.60;70.02;101566.88;5181007;28;20040;-76
2022/05/21 06:22:56;;;;;;;0.68;0.68;;;;;;;13.61;69.04;101558.06;5192530;28;20041;-76
2022/05/21 06:25:29;;;;;;;1.15;1.15;;;;;;;13.68;69.41;101561.38;5179665;28;20033;-77
2022/05/21 06:28:00;;;;;;;0.73;0.73;;;;;;;13.73;68.56;101570.03;5195580;28;20042;-77
2022/05/21 06:30:33;;;;;;;4.55;1.00;;;;;;;13.83;68.18;101568.91;5195764;28;20029;-79
2022/05/21 06:33:30;;;;;;;5.43;1.17;;;;;;;13.75;68.84;101567.34;5168348;28;20121;-80
2022/05/21 06:36:12;;;;;;;0.95;0.95;;;;;;;13.80;68.59;101563.69;5198592;28;20643;-80
2022/05/21 06:38:44;;;;;;;0.52;0.52;;;;;;;13.83;69.04;101565.38;5186137;28;20043;-78
2022/05/21 06:41:17;;;;;;;0.38;0.38;;;;;;;13.92;68.87;101566.91;5200396;28;20099;-78
2022/05/21 06:43:48;;;;;;;;;;;;;;;13.80;69.63;101574.25;5185478;28;20570;-78
2022/05/21 06:46:18;;;;;;;0.30;0.30;;;;;;;13.94;68.37;101575.63;5197436;28;19913;-78
2022/05/21 06:48:49;;;;;;;0.50;0.50;;;;;;;13.87;69.13;101579.34;5185168;28;20045;-80
2022/05/21 06:51:19;;;;;;;0.40;0.40;;;;;;;14.00;68.80;101586.03;5186434;28;20061;-77
2022/05/21 06:53:50;;;;;;;0.50;0.50;;;;;;;13.84;69.39;101578.50;5194080;28;20030;-77
2022/05/21 06:56:21;;;;;;;2.55;2.35;;;;;;;13.87;69.99;101590.78;5198955;28;20538;-78
2022/05/21 06:58:51;;;;;;;0.50;0.50;;;;;;;13.93;69.34;101582.69;5194175;28;20101;-78
2022/05/21 07:01:22;;;;;;;0.30;0.30;;;;;;;13.95;69.23;101583.53;5191462;28;20480;-79
2022/05/21 07:03:52;;;;;;;0.50;0.50;;;;;;;13.92;69.02;101588.88;5174950;28;20034;-78
2022/05/21 07:09:13;;;;;;;0.43;0.43;;;;;;;14.05;68.43;101592.03;5194708;28;20091;-78
2022/05/21 07:11:44;;;;;;;0.77;0.77;;;;;;;13.96;69.22;101589.66;5177375;28;20021;-77
2022/05/21 07:14:15;;;;;;;1.05;1.02;;;;;;;13.94;69.20;101588.81;5191602;28;20044;-77
2022/05/21 07:16:46;;;;;;;2.90;1.77;;;;;;;13.96;69.07;101597.56;5196890;28;20030;-77
2022/05/21 07:19:16;;;;;;;1.50;1.33;;;;;;;13.98;69.21;101598.41;5172211;28;20420;-77
2022/05/21 07:21:46;;;;;;;0.30;0.30;;;;;;;13.94;69.33;101594.09;5189983;28;20128;-77
2022/05/21 07:24:17;;;;;;;1.15;0.93;;;;;;;14.13;68.10;101597.97;5171213;28;20037;-77
2022/05/21 07:26:47;;;;;;;0.80;0.80;;;;;;;14.19;68.17;101603.97;5173659;28;20084;-77
2022/05/21 07:29:18;;;;;;;0.95;0.88;;;;;;;14.23;68.27;101600.34;5194856;28;20053;-77
2022/05/21 07:31:48;;;;;;;0.30;0.30;;;;;;;14.19;68.58;101596.94;5204526;28;20468;-77
2022/05/21 07:34:19;;;;;;;0.35;0.35;;;;;;;14.19;68.88;101603.97;5187750;28;20042;-77
2022/05/21 07:36:49;;;;;;;0.95;0.95;;;;;;;14.29;68.76;101598.41;5187167;28;20066;-77
2022/05/21 07:39:20;;;;;;;1.17;1.08;;;;;;;14.29;68.00;101597.53;5200975;28;20624;-77
2022/05/21 07:41:50;;;;;;;2.83;1.10;;;;;;;14.29;67.69;101598.41;5175219;28;20060;-78
2022/05/21 07:44:21;;;;;;;0.55;0.55;;;;;;;14.37;67.57;101606.09;5188526;28;20061;-77
2022/05/21 07:46:51;;;;;;;0.30;0.30;;;;;;;14.47;66.83;101604.94;5166620;28;20510;-76
2022/05/21 07:49:23;;;;;;;1.95;1.00;;;;;;;14.43;66.83;101613.81;5198145;28;20068;-77
2022/05/21 07:51:54;;;;;;;1.00;0.93;;;;;;;14.46;67.02;101620.81;5176813;28;20071;-78
2022/05/21 07:54:26;;;;;;;0.90;0.90;;;;;;;14.62;66.66;101618.56;5198102;28;20056;-77
2022/05/21 07:56:57;;;;;;;0.40;0.40;;;;;;;14.58;67.18;101614.31;5177055;28;20378;-77
2022/05/21 07:59:28;;;;;;;1.35;0.70;;;;;;;14.67;66.83;101611.41;5196787;28;20037;-76
2022/05/21 08:01:58;;;;;;;0.45;0.45;;;;;;;14.68;66.43;101618.41;5174556;28;20065;-77
2022/05/21 08:04:29;;;;;;;1.25;0.70;;;;;;;14.77;66.09;101614.66;5194263;28;20057;-77
2022/05/21 08:06:59;;;;;;;0.88;0.88;;;;;;;14.82;65.97;101614.50;5200996;28;20120;-76
2022/05/21 08:09:30;;;;;;;1.95;1.60;;;;;;;14.74;66.37;101615.63;5210869;28;20302;-77
2022/05/21 08:12:01;;;;;;;0.30;0.30;;;;;;;14.85;65.91;101622.31;5181351;28;20072;-77
2022/05/21 08:14:32;;;;;;;4.85;1.45;;;;;;;14.88;66.20;101615.16;5190324;28;20037;-77
2022/05/21 08:17:03;;;;;;;0.35;0.35;;;;;;;14.87;65.58;101613.47;5199968;28;20040;-78
2022/05/21 08:19:33;;;;;;;0.50;0.50;;;;;;;14.79;66.28;101631.34;5184000;28;20069;-79
2022/05/21 08:27:43;;;;;;;1.38;0.82;;;;;;;14.87;66.17;101631.06;5216324;28;20041;-78
2022/05/21 08:30:14;;;;;;;0.30;0.30;;;;;;;15.03;65.99;101628.84;5218614;28;20349;-79
2022/05/21 08:32:44;;;;;;;0.98;0.93;;;;;;;15.08;64.68;101627.75;5197682;28;20029;-78
2022/05/21 08:35:20;;;;;;;0.40;0.40;;;;;;;15.13;64.72;101626.75;5183677;28;20093;-78
2022/05/21 08:37:50;;;;;;;1.35;1.25;;;;;;;15.10;63.98;101625.94;5204998;28;20044;-78
2022/05/21 08:40:22;;;;;;;1.17;1.10;;;;;;;15.01;64.64;101626.22;5181235;28;20072;-78
2022/05/21 08:42:58;;;;;;;0.50;0.50;;;;;;;15.07;64.72;101625.16;5207443;28;20132;-78
2022/05/21 08:45:56;;;;;;;1.83;0.77;;;;;;;15.10;63.76;101625.94;5196512;28;20048;-79
2022/05/21 08:48:31;;;;;;;0.75;0.75;;;;;;;15.17;64.04;101633.66;5203608;28;20041;-78
2022/05/21 08:51:10;;;;;;;2.50;0.75;;;;;;;15.10;64.56;101625.09;5193796;28;20041;-78
2022/05/21 08:53:49;;;;;;;0.68;0.68;;;;;;;15.20;63.88;101633.59;5178993;28;20576;-78
2022/05/21 08:56:20;;;;;;;1.52;0.95;;;;;;;15.21;63.26;101627.38;5158468;28;20048;-78
2022/05/21 08:59:01;;;;;;;0.30;0.30;;;;;;;15.40;63.23;101627.66;5184359;28;20056;-78
2022/05/21 09:01:34;;;;;;;0.30;0.30;;;;;;;15.43;63.50;101630.19;5174653;28;20065;-78
2022/05/21 09:04:11;;;;;;;1.83;0.85;;;;;;;15.54;63.14;101622.75;5173580;28;20089;-79
2022/05/21 09:07:22;;;;;;;0.40;0.40;;;;;;;15.56;62.77;101638.59;5198200;28;20157;-79
2022/05/21 09:10:15;;;;;;;0.30;0.30;;;;;;;15.66;61.70;101634.69;5184262;28;20124;-78
2022/05/21 09:13:03;;;;;;;1.70;0.80;;;;;;;15.61;61.97;101630.50;5183605;28;20041;-78
2022/05/21 09:18:23;;;;;;;1.10;0.85;;;;;;;15.72;62.07;101642.44;5195445;28;20064;-79
2022/05/21 09:21:00;;;;;;;0.77;0.77;;;;;;;15.64;61.52;101630.38;5193419;28;20511;-79
2022/05/21 09:23:49;;;;;;;3.55;0.88;;;;;;;15.70;61.83;101643.44;5182785;28;20040;-79
2022/05/21 09:26:26;;;;;;;0.88;0.88;;;;;;;15.70;61.58;101631.06;5179599;28;20033;-79
2022/05/21 09:29:14;;;;;;;2.83;1.27;;;;;;;15.85;61.57;101632.34;5187629;28;20038;-80
2022/05/21 09:31:45;;;;;;;2.45;1.40;;;;;;;16.03;61.37;101628.19;5169372;28;20155;-78
2022/05/21 09:34:33;;;;;;;0.60;0.60;;;;;;;16.02;61.67;101634.38;5188242;28;20137;-78
2022/05/21 09:37:14;;;;;;;1.42;1.33;;;;;;;16.07;61.46;101625.44;5192070;28;20042;-77
2022/05/21 09:39:45;;;;;;;1.85;1.13;;;;;;;16.32;60.66;101628.88;5180290;28;20064;-78
2022/05/21 09:45:26;;;;;;;0.35;0.35;;;;;;;16.16;58.33;101618.00;5207960;28;20030;-77
2022/05/21 09:48:05;;;;;;;0.30;0.30;;;;;;;16.26;59.39;101622.97;5196520;28;20040;-78
2022/05/21 09:50:59;;;;;;;0.95;0.95;;;;;;;16.37;59.44;101623.44;5196569;28;20049;-78
2022/05/21 09:53:34;;;;;;;0.88;0.88;;;;;;;16.41;58.99;101629.47;5176420;28;20506;-77
2022/05/21 09:56:04;;;;;;;1.50;1.40;;;;;;;16.45;58.78;101620.50;5187438;28;20053;-78
2022/05/21 09:58:39;;;;;;;0.40;0.40;;;;;;;16.44;58.39;101622.31;5176007;28;20034;-78
2022/05/21 10:01:31;;;;;;;0.95;0.80;;;;;;;16.49;58.82;101615.03;5194203;28;20261;-78
2022/05/21 10:04:11;;;;;;;1.10;0.82;;;;;;;16.44;58.51;101624.06;5179370;28;20391;-78
2022/05/21 10:06:51;;;;;;;0.50;0.50;;;;;;;16.57;59.59;101620.03;5203172;28;20582;-78
2022/05/21 10:12:43;;;;;;;2.30;1.63;;;;;;;16.60;58.50;101609.31;5181446;28;20057;-78
2022/05/21 10:15:21;;;;;;;0.85;0.85;;;;;;;16.66;58.23;101627.63;5195482;28;20057;-78
2022/05/21 10:18:03;;;;;;;0.30;0.30;;;;;;;16.92;58.04;101622.25;5175828;28;20489;-77
2022/05/21 10:20:44;;;;;;;1.55;0.77;;;;;;;16.85;57.65;101616.31;5195587;28;20846;-78
2022/05/21 10:23:23;;;;;;;0.57;0.57;;;;;;;16.91;58.70;101618.72;5191557;28;20030;-78
2022/05/21 10:26:07;;;;;;;0.40;0.40;;;;;;;16.94;56.89;101612.50;5190129;28;20033;-77
2022/05/21 10:28:45;;;;;;;0.30;0.30;;;;;;;16.87;56.40;101622.44;5176832;28;20753;-77
2022/05/21 10:31:36;;;;;;;0.73;0.73;;;;;;;16.85;56.58;101621.63;5203155;28;20096;-77
2022/05/21 10:34:13;;;;;;;1.35;1.20;;;;;;;16.87;57.31;101633.03;5199701;28;20020;-77
2022/05/21 10:36:53;;;;;;;0.77;0.77;;;;;;;16.76;57.50;101628.16;5190724;28;20034;-77
2022/05/21 10:39:33;;;;;;;0.30;0.30;;;;;;;16.86;57.42;101635.75;5195954;28;20049;-76
2022/05/21 10:42:13;;;;;;;0.40;0.40;;;;;;;16.79;57.97;101641.28;5186247;28;20144;-77
2022/05/21 10:44:58;;;;;;;0.60;0.60;;;;;;;16.77;57.40;101639.59;5193858;28;20045;-77
2022/05/21 10:47:41;;;;;;;0.38;0.38;;;;;;;16.83;57.83;101639.38;5196086;28;20036;-77
2022/05/21 10:50:39;;;;;;;1.63;1.53;;;;;;;17.03;57.15;101643.06;5174271;28;20038;-77
2022/05/21 10:53:43;;;;;;;0.40;0.40;;;;;;;16.87;56.65;101635.69;5173524;28;20367;-77
2022/05/21 10:56:30;;;;;;;0.43;0.43;;;;;;;17.07;57.44;101628.75;5193240;28;20045;-77
2022/05/21 10:59:00;;;;;;;0.38;0.38;;;;;;;17.24;56.91;101620.97;5174081;28;20034;-77
2022/05/21 11:01:56;;;;;;;0.45;0.45;;;;;;;17.24;56.99;101615.69;5191620;28;20645;-77
2022/05/21 11:04:47;;;;;;;0.40;0.40;;;;;;;17.40;56.95;101625.66;5177117;28;20094;-78
2022/05/21 11:07:39;;;;;;;1.17;0.73;;;;;;;17.45;55.81;101619.22;5150658;28;20400;-77
2022/05/21 11:10:23;;;;;;;1.33;0.47;;;;;;;17.49;55.12;101619.97;5177647;28;20083;-80
2022/05/21 11:13:34;;;;;;;1.98;1.30;;;;;;;17.55;54.77;101613.53;5186761;28;20027;-82
2022/05/21 11:16:20;;;;;;;0.88;0.47;;;;;;;17.65;52.67;101617.53;5174650;28;20132;-81
2022/05/21 11:18:57;;;;;;;0.20;0.20;;;;;;;17.68;51.18;101619.19;5215253;28;20041;-80
2022/05/21 11:21:38;;;;;;;1.85;1.75;;;;;;;17.75;51.85;101610.91;5183584;28;20513;-80
2022/05/21 11:24:56;;;;;;;0.25;0.25;;;;;;;17.86;52.94;101610.44;5192736;28;20033;-79
2022/05/21 11:27:43;;;;;;;2.25;0.90;;;;;;;18.04;52.82;101610.59;5143250;28;20417;-79
2022/05/21 11:30:21;;;;;;;3.15;1.23;;;;;;;18.13;53.00;101618.16;5141834;28;20623;-80
2022/05/21 11:38:52;;;;;;;0.85;0.75;;;;;;;18.42;51.94;101615.97;5187791;28;20511;-78
2022/05/21 11:42:03;;;;;;;0.43;0.43;;;;;;;18.31;50.69;101612.91;5200319;28;20049;-79
2022/05/21 11:44:56;;;;;;;0.57;0.57;;;;;;;18.35;51.34;101615.38;5202260;28;20048;-78
2022/05/21 11:47:27;;;;;;;0.40;0.40;;;;;;;18.37;51.59;101623.28;5201560;28;20021;-80
2022/05/21 11:49:57;;;;;;;0.90;0.65;;;;;;;18.36;51.76;101622.41;5187867;28;20045;-79
2022/05/21 11:52:31;;;;;;;8.25;1.95;;;;;;;18.33;51.30;101611.94;5188892;28;20032;-79
2022/05/21 11:55:22;;;;;;;0.75;0.75;;;;;;;18.54;50.88;101615.41;5177253;28;20135;-78
2022/05/21 11:58:05;;;;;;;0.75;0.75;;;;;;;18.67;51.26;101610.38;5207919;28;20042;-78
2022/05/21 12:00:44;;;;;;;1.20;0.98;;;;;;;18.73;51.10;101619.84;5196788;28;20080;-78
2022/05/21 12:03:17;;;;;;;0.57;0.57;;;;;;;18.85;50.78;101608.63;5197851;28;20504;-79
2022/05/21 12:05:55;;;;;;;1.60;1.50;;;;;;;18.94;50.27;101602.03;5205734;28;20036;-78
2022/05/21 12:08:26;;;;;;;1.55;0.75;;;;;;;18.94;50.17;101602.03;5206240;28;20036;-79
2022/05/21 12:11:34;;;;;;;0.73;0.73;;;;;;;18.99;49.85;101599.16;5209740;28;20056;-78
2022/05/21 12:14:14;;;;;;;0.50;0.50;;;;;;;18.91;48.06;101601.28;5196146;28;20184;-78
2022/05/21 12:16:49;;;;;;;0.43;0.43;;;;;;;18.97;50.09;101601.03;5200180;28;20030;-76
2022/05/21 12:19:44;;;;;;;0.28;0.28;;;;;;;18.98;50.08;101595.66;5193615;28;20055;-77
2022/05/21 12:22:53;;;;;;;2.70;1.58;;;;;;;18.93;49.71;101602.13;5170992;28;20076;-78
2022/05/21 12:25:42;;;;;;;0.47;0.47;;;;;;;19.06;48.97;101600.56;5120146;28;20035;-78
2022/05/21 12:28:12;;;;;;;0.75;0.75;;;;;;;19.18;49.56;101597.31;5092428;28;20031;-77
2022/05/21 12:30:43;;;;;;;0.20;0.20;;;;;;;19.12;48.57;101589.66;5173381;28;20100;-77
2022/05/21 12:33:32;;;;;;;0.50;0.50;;;;;;;18.94;47.45;101586.06;5195676;28;20038;-77
2022/05/21 12:36:44;;;;;;;0.63;0.63;;;;;;;19.02;48.35;101586.56;5161736;28;20072;-77
2022/05/21 12:39:20;;;;;;;0.20;0.20;;;;;;;19.27;48.22;101592.47;5192147;28;20471;-77
2022/05/21 12:41:53;;;;;;;0.40;0.40;;;;;;;19.42;48.35;101581.06;5193302;28;20047;-77